Minerva Concert — SVWC — position and weather

sailwx.info

Track history (hours):
 
Tides and Currents Weather Stations Pressure Air Temp Water Temp Dewpoint Dewpoint Depression Visibility Wind Speed Wind Dir Waves Ship Positions

Minerva Concert

Last reported at 2017-Aug-21 02:30 UTC. Time now 2017-Aug-21 02:41 UTC.
Position N 51°57' E 004°10'.

Length 241 m; draft 14.2 m.

Type: Ship. MMSI: 240110000.

Date/timePositionNaut miles runAvg speedWind from/ knotsBaromVisibWave heightAir tempDewpointWater temp
2017-Aug-21 02:30N 51°57' E 004°10'0 0.0
2017-Aug-21 02:00N 51°57' E 004°10'0 0.5
2017-Aug-21 01:31N 51°57' E 004°10'2 3.4
2017-Aug-21 01:01N 51°58' E 004°07'4 7.7
2017-Aug-21 00:31N 51°60' E 004°02'510.2
2017-Aug-21 00:01N 52°00' E 003°53'5 9.5
2017-Aug-20 23:31N 52°00' E 003°46'5 9.2
2017-Aug-20 23:01N 51°58' E 003°39'611.0
2017-Aug-20 22:30N 51°56' E 003°30'3010.7
2017-Aug-20 19:40N 51°47' E 002°44'210.1
2017-Aug-20 19:29N 51°46' E 002°41'5 9.9
2017-Aug-20 18:58N 51°44' E 002°34'5 9.8
2017-Aug-20 18:25N 51°40' E 002°28'410.0
2017-Aug-20 18:00N 51°36' E 002°24'510.4
2017-Aug-20 17:31N 51°33' E 002°19'510.8
2017-Aug-20 17:01N 51°28' E 002°13'611.0
2017-Aug-20 16:31N 51°23' E 002°11'611.3
2017-Aug-20 16:01N 51°18' E 002°07'511.0
2017-Aug-20 15:31N 51°13' E 002°02'611.6
2017-Aug-20 15:01N 51°10' E 001°54'611.8
2017-Aug-20 14:30N 51°07' E 001°46'612.3
2017-Aug-20 14:01N 51°03' E 001°39'612.7
2017-Aug-20 13:31N 50°58' E 001°33'712.9
2017-Aug-20 12:58N 50°52' E 001°27'5911.7
2017-Aug-20 07:56N 50°21' E 000°08'613.4
2017-Aug-20 07:31N 50°19' W 000°01'713.6
2017-Aug-20 07:00N 50°18' W 000°11'2613.6
2017-Aug-20 05:06N 50°11' W 000°50'113.0
2017-Aug-20 05:00N 50°10' W 000°52'612.8
2017-Aug-20 04:30N 50°09' W 001°01'612.2
2017-Aug-20 04:00N 50°07' W 001°11'611.5
2017-Aug-20 03:30N 50°06' W 001°19'510.8
2017-Aug-20 03:00N 50°04' W 001°27'510.0
2017-Aug-20 02:30N 50°03' W 001°35'5 9.2
2017-Aug-20 02:00N 50°02' W 001°42'4 8.6
2017-Aug-20 01:31N 50°01' W 001°48'4 8.2
2017-Aug-20 01:00N 49°60' W 001°55'4 7.8
2017-Aug-20 00:31N 49°59' W 002°00'4 7.7
2017-Aug-20 00:00N 49°58' W 002°06'4 7.7
2017-Aug-19 23:29N 49°56' W 002°12'22 9.5
2017-Aug-19 21:11N 49°51' W 002°45'210.8
2017-Aug-19 21:00N 49°51' W 002°48'1311.0
2017-Aug-19 19:52N 49°45' W 003°05'411.3
2017-Aug-19 19:30N 49°43' W 003°11'611.4
2017-Aug-19 19:00N 49°40' W 003°18'611.5
2017-Aug-19 18:30N 49°37' W 003°26'611.6
2017-Aug-19 18:00N 49°34' W 003°34'6212.1
2017-Aug-19 12:50N 49°03' W 004°56'411.0
2017-Aug-19 12:30N 49°01' W 005°01'5 9.7
2017-Aug-19 12:00N 48°59' W 005°08'511.0
2017-Aug-19 11:30N 48°56' W 005°15'611.9
2017-Aug-19 11:00N 48°53' W 005°23'611.6
2017-Aug-19 10:30N 48°50' W 005°30'611.1
2017-Aug-19 10:00N 48°46' W 005°37'54611.4
2017-Aug-17 10:02N 40°31' W 010°60'211.7
2017-Aug-17 09:53N 40°29' W 011°00'711.8
2017-Aug-17 09:18N 40°22' W 011°03'511.7
2017-Aug-17 08:54N 40°18' W 011°05'511.7
2017-Aug-17 08:29N 40°13' W 011°08'611.7
2017-Aug-17 08:00N 40°08' W 011°10'611.8
2017-Aug-17 07:30N 40°02' W 011°12'611.7
2017-Aug-17 06:59N 39°57' W 011°15'611.5
2017-Aug-17 06:31N 39°52' W 011°17'711.5
2017-Aug-17 05:52N 39°45' W 011°21'711.3
2017-Aug-17 05:15N 39°38' W 011°24'311.4
2017-Aug-17 05:01N 39°36' W 011°25'711.3
2017-Aug-17 04:24N 39°29' W 011°28'511.4
2017-Aug-17 04:00N 39°25' W 011°29'611.3
2017-Aug-17 03:30N 39°19' W 011°32'611.3
2017-Aug-17 03:00N 39°14' W 011°34'611.3
2017-Aug-17 02:30N 39°09' W 011°37'611.4
2017-Aug-17 02:00N 39°03' W 011°39'611.7
2017-Aug-17 01:27N 38°57' W 011°42'3012.1
2017-Aug-16 22:59N 38°29' W 011°54'712.4
2017-Aug-16 22:25N 38°22' W 011°57'1612.3
2017-Aug-16 21:09N 38°08' W 012°04'212.3
2017-Aug-16 21:00N 38°06' W 012°05'612.0
2017-Aug-16 20:30N 38°00' W 012°07'712.0
2017-Aug-16 19:55N 37°54' W 012°10'512.2
2017-Aug-16 19:30N 37°49' W 012°12'612.0
2017-Aug-16 19:00N 37°43' W 012°14'611.7
2017-Aug-16 18:29N 37°38' W 012°17'611.7
2017-Aug-16 17:58N 37°32' W 012°19'511.7
2017-Aug-16 17:30N 37°27' W 012°22'611.6
2017-Aug-16 17:00N 37°21' W 012°24'611.6
2017-Aug-16 16:30N 37°16' W 012°26'611.4
2017-Aug-16 16:00N 37°10' W 012°29'611.5
2017-Aug-16 15:30N 37°05' W 012°31'611.6
2017-Aug-16 15:00N 36°59' W 012°34'611.8
2017-Aug-16 14:30N 36°54' W 012°36'611.6
2017-Aug-16 14:00N 36°48' W 012°38'611.6
2017-Aug-16 13:30N 36°43' W 012°41'611.6
2017-Aug-16 13:00N 36°37' W 012°43'611.6
2017-Aug-16 12:30N 36°32' W 012°45'711.7
2017-Aug-16 11:56N 36°25' W 012°47'12811.8
2017-Aug-16 01:04N 34°22' W 013°27'111.8
2017-Aug-16 01:00N 34°21' W 013°27'611.7
2017-Aug-16 00:28N 34°15' W 013°29'1511.6
2017-Aug-15 23:13N 34°01' W 013°34'511.5
2017-Aug-15 22:45N 33°56' W 013°35'311.4
2017-Aug-15 22:30N 33°53' W 013°36'911.4
2017-Aug-15 21:44N 33°45' W 013°39'311.2
2017-Aug-15 21:30N 33°42' W 013°40'611.3
2017-Aug-15 21:00N 33°37' W 013°41'611.3
2017-Aug-15 20:30N 33°31' W 013°43'611.4
2017-Aug-15 19:59N 33°25' W 013°45'511.4
2017-Aug-15 19:30N 33°20' W 013°46'611.4
2017-Aug-15 19:00N 33°15' W 013°48'911.4
2017-Aug-15 18:14N 33°06' W 013°51'311.4
2017-Aug-15 17:58N 33°03' W 013°51'3811.6
2017-Aug-15 14:44N 32°27' W 014°03'611.6
2017-Aug-15 14:14N 32°21' W 014°05'311.8
2017-Aug-15 13:58N 32°18' W 014°06'1711.6
2017-Aug-15 12:31N 32°02' W 014°10'111.6
2017-Aug-15 12:23N 32°00' W 014°11'411.6
2017-Aug-15 12:00N 31°56' W 014°12'611.7
2017-Aug-15 11:30N 31°50' W 014°14'811.8
2017-Aug-15 10:49N 31°42' W 014°16'411.8
2017-Aug-15 10:30N 31°39' W 014°17'911.7
2017-Aug-15 09:46N 31°31' W 014°20'1111.9
2017-Aug-15 08:51N 31°20' W 014°23'411.9
2017-Aug-15 08:29N 31°16' W 014°24'611.9
2017-Aug-15 08:00N 31°10' W 014°26'611.9
2017-Aug-15 07:30N 31°04' W 014°28'911.8
2017-Aug-15 06:46N 30°56' W 014°30'1611.9
2017-Aug-15 05:23N 30°40' W 014°35'712.0
2017-Aug-15 04:49N 30°33' W 014°37'411.9
2017-Aug-15 04:29N 30°30' W 014°38'611.8
2017-Aug-15 04:00N 30°24' W 014°40'612.0
2017-Aug-15 03:30N 30°18' W 014°42'611.9
2017-Aug-15 02:58N 30°12' W 014°44'611.9
2017-Aug-15 02:30N 30°07' W 014°45'611.6
2017-Aug-15 02:00N 30°01' W 014°47'611.4
2017-Aug-15 01:30N 29°56' W 014°49'611.3
2017-Aug-15 01:00N 29°50' W 014°50'611.2
2017-Aug-15 00:30N 29°45' W 014°52'611.2
2017-Aug-15 00:00N 29°39' W 014°53'611.2
2017-Aug-14 23:30N 29°34' W 014°55'611.3
2017-Aug-14 22:56N 29°28' W 014°57'511.3
2017-Aug-14 22:30N 29°23' W 014°58'611.2
2017-Aug-14 22:00N 29°18' W 014°60'611.3
2017-Aug-14 21:30N 29°12' W 015°01'611.3
2017-Aug-14 21:00N 29°07' W 015°03'1811.3
2017-Aug-14 19:22N 28°49' W 015°08'411.4
2017-Aug-14 19:00N 28°45' W 015°10'611.4
2017-Aug-14 18:30N 28°39' W 015°11'611.6
2017-Aug-14 18:00N 28°34' W 015°13'611.7
2017-Aug-14 17:30N 28°28' W 015°15'611.8
2017-Aug-14 17:00N 28°22' W 015°16'611.9
2017-Aug-14 16:30N 28°17' W 015°19'611.4
2017-Aug-14 16:00N 28°12' W 015°22'4 7.1
2017-Aug-14 15:27N 28°08' W 015°24'0 0.4
2017-Aug-14 14:57N 28°08' W 015°24'0 0.0
2017-Aug-14 14:28N 28°08' W 015°24'0 0.1
2017-Aug-14 14:01N 28°08' W 015°24'0 0.0
2017-Aug-14 13:30N 28°08' W 015°24'0 0.1
2017-Aug-14 13:00N 28°08' W 015°24'0 0.0
2017-Aug-14 12:30N 28°08' W 015°24'0 0.1
2017-Aug-14 12:00N 28°08' W 015°24'1 1.9
2017-Aug-14 11:31N 28°08' W 015°23'2 3.8
2017-Aug-14 11:00N 28°06' W 015°21'3 6.7
2017-Aug-14 10:31N 28°04' W 015°18'510.3
2017-Aug-14 10:01N 27°60' W 015°15'510.6
2017-Aug-14 09:31N 27°55' W 015°15'510.6
2017-Aug-14 09:00N 27°49' W 015°15'510.5
2017-Aug-14 08:30N 27°44' W 015°15'510.9
2017-Aug-14 08:01N 27°39' W 015°17'4210.1
2017-Aug-14 03:53N 27°01' W 015°36'3710.3
2017-Aug-14 00:18N 26°29' W 015°57'2911.2
2017-Aug-13 21:42N 26°03' W 016°12'511.3
2017-Aug-13 21:17N 25°59' W 016°14'511.3
2017-Aug-13 20:50N 25°55' W 016°17'  
Track history (hours):
 
Tides and Currents Weather Stations Pressure Air Temp Water Temp Dewpoint Dewpoint Depression Visibility Wind Speed Wind Dir Waves Ship Positions

Minerva Concert

Last reported at 2017-Aug-21 02:30 UTC. Time now 2017-Aug-21 02:41 UTC.
Position N 51°57' E 004°10'.

Length 241 m; draft 14.2 m.

Type: Ship. MMSI: 240110000.

Date/timePositionNaut miles runAvg speedWind from/ knotsBaromVisibWave heightAir tempDewpointWater temp
2017-Aug-21 02:30N 51°57' E 004°10'0 0.0
2017-Aug-21 02:00N 51°57' E 004°10'0 0.5
2017-Aug-21 01:31N 51°57' E 004°10'2 3.4
2017-Aug-21 01:01N 51°58' E 004°07'4 7.7
2017-Aug-21 00:31N 51°60' E 004°02'510.2
2017-Aug-21 00:01N 52°00' E 003°53'5 9.5
2017-Aug-20 23:31N 52°00' E 003°46'5 9.2
2017-Aug-20 23:01N 51°58' E 003°39'611.0
2017-Aug-20 22:30N 51°56' E 003°30'3010.7
2017-Aug-20 19:40N 51°47' E 002°44'210.1
2017-Aug-20 19:29N 51°46' E 002°41'5 9.9
2017-Aug-20 18:58N 51°44' E 002°34'5 9.8
2017-Aug-20 18:25N 51°40' E 002°28'410.0
2017-Aug-20 18:00N 51°36' E 002°24'510.4
2017-Aug-20 17:31N 51°33' E 002°19'510.8
2017-Aug-20 17:01N 51°28' E 002°13'611.0
2017-Aug-20 16:31N 51°23' E 002°11'611.3
2017-Aug-20 16:01N 51°18' E 002°07'511.0
2017-Aug-20 15:31N 51°13' E 002°02'611.6
2017-Aug-20 15:01N 51°10' E 001°54'611.8
2017-Aug-20 14:30N 51°07' E 001°46'612.3
2017-Aug-20 14:01N 51°03' E 001°39'612.7
2017-Aug-20 13:31N 50°58' E 001°33'712.9
2017-Aug-20 12:58N 50°52' E 001°27'5911.7
2017-Aug-20 07:56N 50°21' E 000°08'613.4
2017-Aug-20 07:31N 50°19' W 000°01'713.6
2017-Aug-20 07:00N 50°18' W 000°11'2613.6
2017-Aug-20 05:06N 50°11' W 000°50'113.0
2017-Aug-20 05:00N 50°10' W 000°52'612.8
2017-Aug-20 04:30N 50°09' W 001°01'612.2
2017-Aug-20 04:00N 50°07' W 001°11'611.5
2017-Aug-20 03:30N 50°06' W 001°19'510.8
2017-Aug-20 03:00N 50°04' W 001°27'510.0
2017-Aug-20 02:30N 50°03' W 001°35'5 9.2
2017-Aug-20 02:00N 50°02' W 001°42'4 8.6
2017-Aug-20 01:31N 50°01' W 001°48'4 8.2
2017-Aug-20 01:00N 49°60' W 001°55'4 7.8
2017-Aug-20 00:31N 49°59' W 002°00'4 7.7
2017-Aug-20 00:00N 49°58' W 002°06'4 7.7
2017-Aug-19 23:29N 49°56' W 002°12'22 9.5
2017-Aug-19 21:11N 49°51' W 002°45'210.8
2017-Aug-19 21:00N 49°51' W 002°48'1311.0
2017-Aug-19 19:52N 49°45' W 003°05'411.3
2017-Aug-19 19:30N 49°43' W 003°11'611.4
2017-Aug-19 19:00N 49°40' W 003°18'611.5
2017-Aug-19 18:30N 49°37' W 003°26'611.6
2017-Aug-19 18:00N 49°34' W 003°34'6212.1
2017-Aug-19 12:50N 49°03' W 004°56'411.0
2017-Aug-19 12:30N 49°01' W 005°01'5 9.7
2017-Aug-19 12:00N 48°59' W 005°08'511.0
2017-Aug-19 11:30N 48°56' W 005°15'611.9
2017-Aug-19 11:00N 48°53' W 005°23'611.6
2017-Aug-19 10:30N 48°50' W 005°30'611.1
2017-Aug-19 10:00N 48°46' W 005°37'54611.4
2017-Aug-17 10:02N 40°31' W 010°60'211.7
2017-Aug-17 09:53N 40°29' W 011°00'711.8
2017-Aug-17 09:18N 40°22' W 011°03'511.7
2017-Aug-17 08:54N 40°18' W 011°05'511.7
2017-Aug-17 08:29N 40°13' W 011°08'611.7
2017-Aug-17 08:00N 40°08' W 011°10'611.8
2017-Aug-17 07:30N 40°02' W 011°12'611.7
2017-Aug-17 06:59N 39°57' W 011°15'611.5
2017-Aug-17 06:31N 39°52' W 011°17'711.5
2017-Aug-17 05:52N 39°45' W 011°21'711.3
2017-Aug-17 05:15N 39°38' W 011°24'311.4
2017-Aug-17 05:01N 39°36' W 011°25'711.3
2017-Aug-17 04:24N 39°29' W 011°28'511.4
2017-Aug-17 04:00N 39°25' W 011°29'611.3
2017-Aug-17 03:30N 39°19' W 011°32'611.3
2017-Aug-17 03:00N 39°14' W 011°34'611.3
2017-Aug-17 02:30N 39°09' W 011°37'611.4
2017-Aug-17 02:00N 39°03' W 011°39'611.7
2017-Aug-17 01:27N 38°57' W 011°42'3012.1
2017-Aug-16 22:59N 38°29' W 011°54'712.4
2017-Aug-16 22:25N 38°22' W 011°57'1612.3
2017-Aug-16 21:09N 38°08' W 012°04'212.3
2017-Aug-16 21:00N 38°06' W 012°05'612.0
2017-Aug-16 20:30N 38°00' W 012°07'712.0
2017-Aug-16 19:55N 37°54' W 012°10'512.2
2017-Aug-16 19:30N 37°49' W 012°12'612.0
2017-Aug-16 19:00N 37°43' W 012°14'611.7
2017-Aug-16 18:29N 37°38' W 012°17'611.7
2017-Aug-16 17:58N 37°32' W 012°19'511.7
2017-Aug-16 17:30N 37°27' W 012°22'611.6
2017-Aug-16 17:00N 37°21' W 012°24'611.6
2017-Aug-16 16:30N 37°16' W 012°26'611.4
2017-Aug-16 16:00N 37°10' W 012°29'611.5
2017-Aug-16 15:30N 37°05' W 012°31'611.6
2017-Aug-16 15:00N 36°59' W 012°34'611.8
2017-Aug-16 14:30N 36°54' W 012°36'611.6
2017-Aug-16 14:00N 36°48' W 012°38'611.6
2017-Aug-16 13:30N 36°43' W 012°41'611.6
2017-Aug-16 13:00N 36°37' W 012°43'611.6
2017-Aug-16 12:30N 36°32' W 012°45'711.7
2017-Aug-16 11:56N 36°25' W 012°47'12811.8
2017-Aug-16 01:04N 34°22' W 013°27'111.8
2017-Aug-16 01:00N 34°21' W 013°27'611.7
2017-Aug-16 00:28N 34°15' W 013°29'1511.6
2017-Aug-15 23:13N 34°01' W 013°34'511.5
2017-Aug-15 22:45N 33°56' W 013°35'311.4
2017-Aug-15 22:30N 33°53' W 013°36'911.4
2017-Aug-15 21:44N 33°45' W 013°39'311.2
2017-Aug-15 21:30N 33°42' W 013°40'611.3
2017-Aug-15 21:00N 33°37' W 013°41'611.3
2017-Aug-15 20:30N 33°31' W 013°43'611.4
2017-Aug-15 19:59N 33°25' W 013°45'511.4
2017-Aug-15 19:30N 33°20' W 013°46'611.4
2017-Aug-15 19:00N 33°15' W 013°48'911.4
2017-Aug-15 18:14N 33°06' W 013°51'311.4
2017-Aug-15 17:58N 33°03' W 013°51'3811.6
2017-Aug-15 14:44N 32°27' W 014°03'611.6
2017-Aug-15 14:14N 32°21' W 014°05'311.8
2017-Aug-15 13:58N 32°18' W 014°06'1711.6
2017-Aug-15 12:31N 32°02' W 014°10'111.6
2017-Aug-15 12:23N 32°00' W 014°11'411.6
2017-Aug-15 12:00N 31°56' W 014°12'611.7
2017-Aug-15 11:30N 31°50' W 014°14'811.8
2017-Aug-15 10:49N 31°42' W 014°16'411.8
2017-Aug-15 10:30N 31°39' W 014°17'911.7
2017-Aug-15 09:46N 31°31' W 014°20'1111.9
2017-Aug-15 08:51N 31°20' W 014°23'411.9
2017-Aug-15 08:29N 31°16' W 014°24'611.9
2017-Aug-15 08:00N 31°10' W 014°26'611.9
2017-Aug-15 07:30N 31°04' W 014°28'911.8
2017-Aug-15 06:46N 30°56' W 014°30'1611.9
2017-Aug-15 05:23N 30°40' W 014°35'712.0
2017-Aug-15 04:49N 30°33' W 014°37'411.9
2017-Aug-15 04:29N 30°30' W 014°38'611.8
2017-Aug-15 04:00N 30°24' W 014°40'612.0
2017-Aug-15 03:30N 30°18' W 014°42'611.9
2017-Aug-15 02:58N 30°12' W 014°44'611.9
2017-Aug-15 02:30N 30°07' W 014°45'611.6
2017-Aug-15 02:00N 30°01' W 014°47'611.4
2017-Aug-15 01:30N 29°56' W 014°49'611.3
2017-Aug-15 01:00N 29°50' W 014°50'611.2
2017-Aug-15 00:30N 29°45' W 014°52'611.2
2017-Aug-15 00:00N 29°39' W 014°53'611.2
2017-Aug-14 23:30N 29°34' W 014°55'611.3
2017-Aug-14 22:56N 29°28' W 014°57'511.3
2017-Aug-14 22:30N 29°23' W 014°58'611.2
2017-Aug-14 22:00N 29°18' W 014°60'611.3
2017-Aug-14 21:30N 29°12' W 015°01'611.3
2017-Aug-14 21:00N 29°07' W 015°03'1811.3
2017-Aug-14 19:22N 28°49' W 015°08'411.4
2017-Aug-14 19:00N 28°45' W 015°10'611.4
2017-Aug-14 18:30N 28°39' W 015°11'611.6
2017-Aug-14 18:00N 28°34' W 015°13'611.7
2017-Aug-14 17:30N 28°28' W 015°15'611.8
2017-Aug-14 17:00N 28°22' W 015°16'611.9
2017-Aug-14 16:30N 28°17' W 015°19'611.4
2017-Aug-14 16:00N 28°12' W 015°22'4 7.1
2017-Aug-14 15:27N 28°08' W 015°24'0 0.4
2017-Aug-14 14:57N 28°08' W 015°24'0 0.0
2017-Aug-14 14:28N 28°08' W 015°24'0 0.1
2017-Aug-14 14:01N 28°08' W 015°24'0 0.0
2017-Aug-14 13:30N 28°08' W 015°24'0 0.1
2017-Aug-14 13:00N 28°08' W 015°24'0 0.0
2017-Aug-14 12:30N 28°08' W 015°24'0 0.1
2017-Aug-14 12:00N 28°08' W 015°24'1 1.9
2017-Aug-14 11:31N 28°08' W 015°23'2 3.8
2017-Aug-14 11:00N 28°06' W 015°21'3 6.7
2017-Aug-14 10:31N 28°04' W 015°18'510.3
2017-Aug-14 10:01N 27°60' W 015°15'510.6
2017-Aug-14 09:31N 27°55' W 015°15'510.6
2017-Aug-14 09:00N 27°49' W 015°15'510.5
2017-Aug-14 08:30N 27°44' W 015°15'510.9
2017-Aug-14 08:01N 27°39' W 015°17'4210.1
2017-Aug-14 03:53N 27°01' W 015°36'3710.3
2017-Aug-14 00:18N 26°29' W 015°57'2911.2
2017-Aug-13 21:42N 26°03' W 016°12'511.3
2017-Aug-13 21:17N 25°59' W 016°14'511.3
2017-Aug-13 20:50N 25°55' W 016°17'  

Dump ship's entire track history